Terminal Aerodrome Forecast
Issued by NWS

Home | Current Version | Previous Version | Graphics & Text | Print | Product List | Glossary On
Versions: 1 2 3 4 5 6 7 8 9 10 11 12 13 14 15 16 17
000
FTUS43 KBIS 180500
TAFDIK
TAF
KDIK 180532Z 1806/1906 15007KT P6SM SCT003
      TEMPO 1806/1810 2SM BR
     FM181500 16012KT P6SM SCT150
     FM182100 18010KT P6SM SCT120 BKN150
     FM190300 22005KT P6SM SCT120=

USA.gov is the U.S. government's official web portal to all federal, state and local government web resources and services.